Impacts METAR Board INFO
IDs:

KCLT - Charlotte/Douglas In, NC, US

Updated at: 2003 UTC 17 Jan 2018
Potential Impact None Slight Moderate High
Time17/08Z 17/09Z 17/10Z 17/11Z 17/12Z 17/13Z 17/14Z 17/15Z 17/16Z 17/17Z 17/18Z 17/19Z 17/20Z
VIS10 10 10 8 4 1 0.75 1 0.5 0.5 0.5 0.5 0.5
CIG55 43 29 27 5 5 18 9 7 7 7 7 13
CoverOVCOVCOVCOVCOVCOVCOVCOVCOVCOVCOVCOVCOVC
FltCatVFRVFRMVFRMVFRIFRIFRLIFRIFRLIFRLIFRLIFRLIFRLIFR
WX---RA-RARA-SN BR-SN BR-SN BR-SN BR-SN BR-SN BR-SN BR-SN BR-SN BR
WDir003303501020203030360360350350
WSpd0 0 4 8 8 10 13 8 11 9 8 10 8
WGst-- -- -- -- -- -- -- -- -- -- -- -- --
Raw hourly METARs
KCLT 170752Z 00000KT 10SM OVC055 05/M02 A3024 RMK AO2 RAB28E36 SLP241 P0000 T00501017
KCLT 170852Z 00000KT 10SM -RA SCT032 OVC043 04/M01 A3023 RMK AO2 RAB23 SLP239 P0000 60000 T00441006 56005
KCLT 170952Z 33004KT 10SM -RA BKN029 OVC049 03/01 A3023 RMK AO2 SLP236 P0000 T00330006
KCLT 171052Z 35008KT 8SM RA FEW022 OVC027 03/01 A3023 RMK AO2 SLP239 P0002 T00280011
KCLT 171152Z 01008KT 4SM -SN BR BKN005 OVC026 01/01 A3024 RMK AO2 RAE39SNB39 SLP241 P0005 60007 70007 T00110006 10056 20011 53001
KCLT 171252Z 02010KT 1SM R18C/P6000FT -SN BR OVC005 01/00 A3024 RMK AO2 SFC VIS 2 CIG 003V008 SLP243 P0003 T00060000
KCLT 171352Z 02013KT 3/4SM R18C/3500V5000FT -SN BR FEW005 SCT010 OVC018 00/M01 A3025 RMK AO2 TWR VIS 1 SLP246 SNINCR 1/1 P0005 T00001011
KCLT 171459Z 03008KT 1SM R18C/4500V6000FT -SN BR BKN009 OVC020 M01/M02 A3026 RMK AO2 SFC VIS 1 1/4 P0001 T10061017
KCLT 171552Z 03011KT 1/2SM R18C/3000V3500FT -SN BR BKN007 BKN012 OVC023 M01/M02 A3025 RMK AO2 SFC VIS 3/4 SLP249 P0006 T10111022
KCLT 171652Z 36009KT 1/2SM R18C/4000VP6000FT -SN BR FEW004 BKN007 OVC023 M02/M02 A3024 RMK AO2 SFC VIS 1 1/4 SLP244 P0004 T10171022
KCLT 171752Z COR 36008KT 1/2SM R18C/2600V5500FT -SN BR SCT004 OVC007 M01/M02 A3022 RMK AO2 SFC VIS 3/4 SLP238 SNINCR 1/3 4/003 933029 P0006 60028 T10111022 10011 21017 58010
KCLT 171852Z 35010KT 1/2SM R18C/P6000FT -SN BR FEW004 BKN007 OVC014 M01/M03 A3021 RMK AO2 SFC VIS 3 SLP235 P0003 T10111028
KCLT 171952Z 35008KT 1/2SM R18C/P6000FT -SN BR SCT007 BKN013 OVC036 M02/M03 A3021 RMK AO2 SFC VIS 5 SLP235 P0000 T10221033